• Join FlightAware (Why Join?)
  • Login
  • US Flag 
03:18AM EDT


 

Airport Tracker/Info


-or-


 

Live Flight TrackerFlight Track Log ✈ EJA122 ✈ 11-Jun-2013 ✈ KSJC - KLAS

Flight Track Log - Related Links

Times and Time Zones

All times are in EDT time to prevent confusion due to time zone crossing. See the EJA122 flight status page for this flight to view local times or setup timezone preferences in your user account.

Time Position Orientation Groundspeed Altitude Reporting Facility
EDT Latitude Longitude Course Direction KTS MPH feet Rate Location/Type
04:00PM 37.3792 -121.6547 107° East 322 371 13,900  Level Oakland Center
04:01PM 37.3453 -121.5242 108° East 333 383 16,300 2,160 Climbing Oakland Center
04:02PM 37.3169 -121.4139 108° East 333 383 18,300 1,800 Climbing Oakland Center
04:03PM 37.2881 -121.3053 108° East 330 380 20,100 1,380 Climbing Oakland Center
04:04PM 37.2592 -121.1944 108° East 333 383 21,200 1,020 Climbing Oakland Center
04:05PM 37.2278 -121.0778 109° East 350 403 22,200 1,020 Climbing Oakland Center
04:06PM 37.1958 -120.9567 108° East 362 417 23,300 1,080 Climbing Oakland Center
04:07PM 37.1631 -120.8350 109° East 368 423 24,500 1,080 Climbing Oakland Center
04:08PM 37.1306 -120.7078 108° East 380 437 25,600 1,080 Climbing Oakland Center
04:09PM 37.0886 -120.5586 109° East 380 437 26,800 1,020 Climbing Oakland Center
04:10PM 37.0539 -120.4306 109° East 385 443 27,700 900 Climbing Oakland Center
04:11PM 37.0186 -120.3017 109° East 391 450 28,700 600 Climbing Oakland Center
04:12PM 36.9814 -120.1667 109° East 404 465 29,000 120 Climbing Oakland Center
04:13PM 36.9456 -120.0378 109° East 427 491 29,000  Level Oakland Center
04:14PM 36.9317 -119.8494 95° East 464 534 29,000 60 Level Oakland Center
04:15PM 36.9756 -119.6958 70° East 472 543 29,200 420 Climbing Oakland Center
04:16PM 37.0228 -119.5414 69° East 476 548 29,900 720 Climbing Oakland Center
04:17PM 37.0689 -119.3903 69° East 467 537 30,700 780 Climbing Oakland Center
04:18PM 37.1156 -119.2383 69° East 469 540 31,500 780 Climbing Oakland Center
04:19PM 37.1619 -119.0869 69° East 465 535 32,300 720 Climbing Oakland Center
04:20PM 37.2089 -118.9342 69° East 468 539 33,000 300 Climbing Oakland Center
04:21PM 37.2550 -118.7775 70° East 477 549 33,000  Level Oakland Center
04:22PM 37.3036 -118.6175 69° East 490 564 33,000  Level Oakland Center
04:23PM 37.3583 -118.4275 70° East 503 579 33,000  Level Oakland Center
04:24PM 37.3819 -118.2542 80° East 508 585 33,000  Level Oakland Center
04:25PM 37.3911 -118.0764 86° East 511 588 33,000  Level Oakland Center
04:26PM 37.4014 -117.9003 86° East 508 585 33,000  Level Oakland Center
04:27PM 37.4083 -117.7219 87° East 511 588 33,000  Level Oakland Center
04:28PM 37.4181 -117.5450 86° East 511 588 33,000  Level Oakland Center
04:29PM 37.3978 -117.3364 97° East 508 585 33,000  Level Oakland Center
04:30PM 37.3239 -117.2003 124° Southeast 482 555 33,000  Level Oakland Center
04:31PM 37.2244 -117.1061 143° Southeast 456 525 33,000  Level Oakland Center
04:32PM 37.2050 -117.0903 147° Southeast 452 520 33,000  Level Los Angeles Center
04:33PM 37.1022 -117.0036 146° Southeast 447 514 33,000 -300 Level Los Angeles Center
04:34PM 36.9981 -116.9156 146° Southeast 451 519 32,400 -960 Descending Los Angeles Center
04:35PM 36.8550 -116.7944 146° Southeast 445 512 30,900 -1,320 Descending Los Angeles Center
04:36PM 36.7617 -116.6908 138° Southeast 456 525 29,500 -1,620 Descending Los Angeles Center
04:37PM 36.6611 -116.5486 131° Southeast 457 526 27,300 -2,040 Descending Los Angeles Center
04:38PM 36.5781 -116.4319 132° Southeast 452 520 25,400 -1,980 Descending Los Angeles Center
04:39PM 36.4986 -116.3194 131° Southeast 446 513 23,300 -2,340 Descending Los Angeles Center
04:40PM 36.4014 -116.1828 131° Southeast 448 516 20,600 -2,640 Descending Los Angeles Center
04:41PM 36.3719 -116.1450 134° Southeast 444 511 19,700 -2,340 Descending Los Angeles Center
04:41PM 36.3225 -116.0725 130° Southeast 433 498 18,200 -1,920 Descending Los Angeles Center
04:43PM 36.2347 -115.9519 132° Southeast 386 444 16,000 -1,200 Descending Los Angeles Center
04:44PM 36.1919 -115.8706 123° Southeast 341 392 15,800 -480 Descending Los Angeles Center
04:44PM 36.1814 -115.8414 114° Southeast 331 381 15,500 -1,080 Descending Los Angeles Center
04:45PM 36.1550 -115.7572 111° Southeast 332 382 14,700 -1,080 Descending Los Angeles Center
04:46PM 36.1133 -115.6319 112° Southeast 333 383 13,500 -1,020 Descending Los Angeles Center
04:47PM 36.0808 -115.5308 112° Southeast 329 379 12,500 -900 Descending Los Angeles Center
04:48PM 36.0481 -115.4297 112° Southeast 320 368 11,600 -900 Descending Los Angeles Center
04:49PM 36.0275 -115.3342 105° East 302 348 10,600 -1,200 Descending Los Angeles Center
04:50PM 36.0189 -115.2133 95° East 298 343 9,200 -1,080 Descending Los Angeles Center
04:51PM 36.0128 -115.1256 95° East 270 311 8,400 -660 Descending Los Angeles Center
04:52PM 36.0108 -115.0575 92° East 230 265 7,900 -1,200 Descending Los Angeles Center
04:53PM 36.0783 -115.0397 12° North 225 259 6,100 -1,800 Descending Los Angeles Center
04:54PM 36.1178 -115.0719 327° Northwest 183 211 4,400 -1,380 Descending Los Angeles Center
04:55PM 36.1311 -115.1233 288° West 181 208 2,900 -1,020 Descending Los Angeles Center
04:56PM 36.0883 -115.1583 213° Southwest 150 173 2,100 -780 Descending Los Angeles Center
04:58PM 36.0801 -115.1523 95° East  Level Estimated